sensor_id;sensor_type;location;lat;lon;timestamp;temperature;humidity
46091;DHT22;31826;53.572;10.170;2023-08-17T00:01:41;19.20;99.90
46091;DHT22;31826;53.572;10.170;2023-08-17T00:04:07;19.10;99.90
46091;DHT22;31826;53.572;10.170;2023-08-17T00:06:33;19.10;99.90
46091;DHT22;31826;53.572;10.170;2023-08-17T00:08:59;19.10;99.90
46091;DHT22;31826;53.572;10.170;2023-08-17T00:11:24;19.10;99.90
46091;DHT22;31826;53.572;10.170;2023-08-17T00:13:50;19.00;99.90
46091;DHT22;31826;53.572;10.170;2023-08-17T00:16:16;18.90;99.90
46091;DHT22;31826;53.572;10.170;2023-08-17T00:18:42;18.90;99.90
46091;DHT22;31826;53.572;10.170;2023-08-17T00:21:08;18.90;99.90
46091;DHT22;31826;53.572;10.170;2023-08-17T00:23:34;18.80;99.90
46091;DHT22;31826;53.572;10.170;2023-08-17T00:26:00;18.90;99.90
46091;DHT22;31826;53.572;10.170;2023-08-17T00:28:26;18.80;99.90
46091;DHT22;31826;53.572;10.170;2023-08-17T00:30:52;18.80;99.90
46091;DHT22;31826;53.572;10.170;2023-08-17T00:33:18;18.80;99.90
46091;DHT22;31826;53.572;10.170;2023-08-17T00:35:44;18.80;99.90
46091;DHT22;31826;53.572;10.170;2023-08-17T00:38:11;18.80;99.90
46091;DHT22;31826;53.572;10.170;2023-08-17T00:40:37;18.80;99.90
46091;DHT22;31826;53.572;10.170;2023-08-17T00:43:03;18.80;99.90
46091;DHT22;31826;53.572;10.170;2023-08-17T00:45:30;18.70;99.90
46091;DHT22;31826;53.572;10.170;2023-08-17T00:47:57;18.70;99.90
46091;DHT22;31826;53.572;10.170;2023-08-17T00:50:25;18.70;99.90
46091;DHT22;31826;53.572;10.170;2023-08-17T00:52:54;18.60;99.90
46091;DHT22;31826;53.572;10.170;2023-08-17T00:55:21;18.60;99.90
46091;DHT22;31826;53.572;10.170;2023-08-17T00:57:46;18.60;99.90
46091;DHT22;31826;53.572;10.170;2023-08-17T01:00:13;18.60;99.90
46091;DHT22;31826;53.572;10.170;2023-08-17T01:02:42;18.50;99.90
46091;DHT22;31826;53.572;10.170;2023-08-17T01:05:08;18.60;99.90
46091;DHT22;31826;53.572;10.170;2023-08-17T01:07:34;18.50;99.90
46091;DHT22;31826;53.572;10.170;2023-08-17T01:10:01;18.50;99.90
46091;DHT22;31826;53.572;10.170;2023-08-17T01:15:36;18.50;99.90
46091;DHT22;31826;53.572;10.170;2023-08-17T01:18:23;18.40;99.90
46091;DHT22;31826;53.572;10.170;2023-08-17T01:20:52;18.40;99.90
46091;DHT22;31826;53.572;10.170;2023-08-17T01:23:19;18.30;99.90
46091;DHT22;31826;53.572;10.170;2023-08-17T01:25:45;18.30;99.90
46091;DHT22;31826;53.572;10.170;2023-08-17T01:28:11;18.30;99.90
46091;DHT22;31826;53.572;10.170;2023-08-17T01:30:58;18.20;99.90
46091;DHT22;31826;53.572;10.170;2023-08-17T01:33:52;18.30;99.90
46091;DHT22;31826;53.572;10.170;2023-08-17T01:36:26;18.20;99.90
46091;DHT22;31826;53.572;10.170;2023-08-17T01:38:53;18.30;99.90
46091;DHT22;31826;53.572;10.170;2023-08-17T01:41:22;18.30;99.90
46091;DHT22;31826;53.572;10.170;2023-08-17T01:43:48;18.30;99.90
46091;DHT22;31826;53.572;10.170;2023-08-17T01:46:16;18.40;99.90
46091;DHT22;31826;53.572;10.170;2023-08-17T01:48:45;18.40;99.90
46091;DHT22;31826;53.572;10.170;2023-08-17T01:51:15;18.40;99.90
46091;DHT22;31826;53.572;10.170;2023-08-17T01:53:41;18.40;99.90
46091;DHT22;31826;53.572;10.170;2023-08-17T01:56:07;18.50;99.90
46091;DHT22;31826;53.572;10.170;2023-08-17T01:58:33;18.40;99.90
46091;DHT22;31826;53.572;10.170;2023-08-17T02:00:58;18.40;99.90
46091;DHT22;31826;53.572;10.170;2023-08-17T02:03:24;18.50;99.90
46091;DHT22;31826;53.572;10.170;2023-08-17T02:05:50;18.60;99.90
46091;DHT22;31826;53.572;10.170;2023-08-17T02:08:15;18.50;99.90
46091;DHT22;31826;53.572;10.170;2023-08-17T02:10:41;18.50;99.90
46091;DHT22;31826;53.572;10.170;2023-08-17T02:13:06;18.60;99.90
46091;DHT22;31826;53.572;10.170;2023-08-17T02:15:32;18.50;99.90
46091;DHT22;31826;53.572;10.170;2023-08-17T02:18:03;18.50;99.90
46091;DHT22;31826;53.572;10.170;2023-08-17T02:20:29;18.40;99.90
46091;DHT22;31826;53.572;10.170;2023-08-17T02:22:54;18.40;99.90
46091;DHT22;31826;53.572;10.170;2023-08-17T02:25:20;18.40;99.90
46091;DHT22;31826;53.572;10.170;2023-08-17T02:27:46;18.30;99.90
46091;DHT22;31826;53.572;10.170;2023-08-17T02:30:12;18.30;99.90
46091;DHT22;31826;53.572;10.170;2023-08-17T02:32:38;18.30;99.90
46091;DHT22;31826;53.572;10.170;2023-08-17T02:35:04;18.20;99.90
46091;DHT22;31826;53.572;10.170;2023-08-17T02:37:30;18.20;99.90
46091;DHT22;31826;53.572;10.170;2023-08-17T02:39:56;18.20;99.90
46091;DHT22;31826;53.572;10.170;2023-08-17T02:42:22;18.10;99.90
46091;DHT22;31826;53.572;10.170;2023-08-17T02:44:48;18.10;99.90
46091;DHT22;31826;53.572;10.170;2023-08-17T02:47:13;18.20;99.90
46091;DHT22;31826;53.572;10.170;2023-08-17T02:49:39;18.20;99.90
46091;DHT22;31826;53.572;10.170;2023-08-17T02:52:05;18.20;99.90
46091;DHT22;31826;53.572;10.170;2023-08-17T02:54:31;18.10;99.90
46091;DHT22;31826;53.572;10.170;2023-08-17T02:56:57;18.20;99.90
46091;DHT22;31826;53.572;10.170;2023-08-17T02:59:23;18.20;99.90
46091;DHT22;31826;53.572;10.170;2023-08-17T03:01:49;18.20;99.90
46091;DHT22;31826;53.572;10.170;2023-08-17T03:04:14;18.10;99.90
46091;DHT22;31826;53.572;10.170;2023-08-17T03:06:40;18.10;99.90
46091;DHT22;31826;53.572;10.170;2023-08-17T03:09:06;18.20;99.90
46091;DHT22;31826;53.572;10.170;2023-08-17T03:11:32;18.10;99.90
46091;DHT22;31826;53.572;10.170;2023-08-17T03:13:58;18.10;99.90
46091;DHT22;31826;53.572;10.170;2023-08-17T03:16:26;18.20;99.90
46091;DHT22;31826;53.572;10.170;2023-08-17T03:18:53;18.20;99.90
46091;DHT22;31826;53.572;10.170;2023-08-17T03:21:18;18.10;99.90
46091;DHT22;31826;53.572;10.170;2023-08-17T03:23:45;18.10;99.90
46091;DHT22;31826;53.572;10.170;2023-08-17T03:26:11;18.10;99.90
46091;DHT22;31826;53.572;10.170;2023-08-17T03:28:37;18.10;99.90
46091;DHT22;31826;53.572;10.170;2023-08-17T03:31:02;18.10;99.90
46091;DHT22;31826;53.572;10.170;2023-08-17T03:33:28;18.00;99.90
46091;DHT22;31826;53.572;10.170;2023-08-17T03:35:54;17.90;99.90
46091;DHT22;31826;53.572;10.170;2023-08-17T03:38:20;17.90;99.90
46091;DHT22;31826;53.572;10.170;2023-08-17T03:40:47;18.00;99.90
46091;DHT22;31826;53.572;10.170;2023-08-17T03:43:13;17.90;99.90
46091;DHT22;31826;53.572;10.170;2023-08-17T03:45:41;18.00;99.90
46091;DHT22;31826;53.572;10.170;2023-08-17T03:48:07;17.90;99.90
46091;DHT22;31826;53.572;10.170;2023-08-17T03:50:33;17.90;99.90
46091;DHT22;31826;53.572;10.170;2023-08-17T03:52:58;17.80;99.90
46091;DHT22;31826;53.572;10.170;2023-08-17T03:55:24;17.90;99.90
46091;DHT22;31826;53.572;10.170;2023-08-17T03:57:50;17.90;99.90
46091;DHT22;31826;53.572;10.170;2023-08-17T04:00:15;17.90;99.90
46091;DHT22;31826;53.572;10.170;2023-08-17T04:02:42;17.90;99.90
46091;DHT22;31826;53.572;10.170;2023-08-17T04:05:08;17.90;99.90
46091;DHT22;31826;53.572;10.170;2023-08-17T04:07:34;17.90;99.90
46091;DHT22;31826;53.572;10.170;2023-08-17T04:10:00;18.00;99.90
46091;DHT22;31826;53.572;10.170;2023-08-17T04:12:25;17.90;99.90
46091;DHT22;31826;53.572;10.170;2023-08-17T04:14:51;18.00;99.90
46091;DHT22;31826;53.572;10.170;2023-08-17T04:17:17;18.00;99.90
46091;DHT22;31826;53.572;10.170;2023-08-17T04:19:42;18.00;99.90
46091;DHT22;31826;53.572;10.170;2023-08-17T04:22:08;18.00;99.90
46091;DHT22;31826;53.572;10.170;2023-08-17T04:24:35;18.00;99.90
46091;DHT22;31826;53.572;10.170;2023-08-17T04:27:00;18.00;99.90
46091;DHT22;31826;53.572;10.170;2023-08-17T04:29:26;18.00;99.90
46091;DHT22;31826;53.572;10.170;2023-08-17T04:31:52;18.00;99.90
46091;DHT22;31826;53.572;10.170;2023-08-17T04:34:18;17.90;99.90
46091;DHT22;31826;53.572;10.170;2023-08-17T04:36:44;18.00;99.90
46091;DHT22;31826;53.572;10.170;2023-08-17T04:39:09;18.00;99.90
46091;DHT22;31826;53.572;10.170;2023-08-17T04:41:35;18.00;99.90
46091;DHT22;31826;53.572;10.170;2023-08-17T04:44:01;17.90;99.90
46091;DHT22;31826;53.572;10.170;2023-08-17T04:46:26;17.90;99.90
46091;DHT22;31826;53.572;10.170;2023-08-17T04:48:52;18.00;99.90
46091;DHT22;31826;53.572;10.170;2023-08-17T04:51:18;18.00;99.90
46091;DHT22;31826;53.572;10.170;2023-08-17T04:53:43;18.00;99.90
46091;DHT22;31826;53.572;10.170;2023-08-17T04:56:09;18.00;99.90
46091;DHT22;31826;53.572;10.170;2023-08-17T04:58:35;18.10;99.90
46091;DHT22;31826;53.572;10.170;2023-08-17T05:01:01;18.10;99.90
46091;DHT22;31826;53.572;10.170;2023-08-17T05:03:26;18.10;99.90
46091;DHT22;31826;53.572;10.170;2023-08-17T05:05:52;18.10;99.90
46091;DHT22;31826;53.572;10.170;2023-08-17T05:08:18;18.10;99.90
46091;DHT22;31826;53.572;10.170;2023-08-17T05:10:44;18.00;99.90
46091;DHT22;31826;53.572;10.170;2023-08-17T05:13:10;18.00;99.90
46091;DHT22;31826;53.572;10.170;2023-08-17T05:15:36;18.00;99.90
46091;DHT22;31826;53.572;10.170;2023-08-17T05:18:01;18.10;99.90
46091;DHT22;31826;53.572;10.170;2023-08-17T05:20:27;18.10;99.90
46091;DHT22;31826;53.572;10.170;2023-08-17T05:22:53;18.10;99.90
46091;DHT22;31826;53.572;10.170;2023-08-17T05:25:18;18.00;99.90
46091;DHT22;31826;53.572;10.170;2023-08-17T05:27:44;18.00;99.90
46091;DHT22;31826;53.572;10.170;2023-08-17T05:30:10;18.00;99.90
46091;DHT22;31826;53.572;10.170;2023-08-17T05:32:36;18.00;99.90
46091;DHT22;31826;53.572;10.170;2023-08-17T05:35:01;18.00;99.90
46091;DHT22;31826;53.572;10.170;2023-08-17T05:37:27;17.90;99.90
46091;DHT22;31826;53.572;10.170;2023-08-17T05:39:53;17.90;99.90
46091;DHT22;31826;53.572;10.170;2023-08-17T05:42:18;17.90;99.90
46091;DHT22;31826;53.572;10.170;2023-08-17T05:44:45;17.90;99.90
46091;DHT22;31826;53.572;10.170;2023-08-17T05:47:10;17.90;99.90
46091;DHT22;31826;53.572;10.170;2023-08-17T05:49:36;17.90;99.90
46091;DHT22;31826;53.572;10.170;2023-08-17T05:52:03;17.90;99.90
46091;DHT22;31826;53.572;10.170;2023-08-17T05:54:29;17.90;99.90
46091;DHT22;31826;53.572;10.170;2023-08-17T05:56:54;17.90;99.90
46091;DHT22;31826;53.572;10.170;2023-08-17T05:59:20;17.90;99.90
46091;DHT22;31826;53.572;10.170;2023-08-17T06:01:46;17.80;99.90
46091;DHT22;31826;53.572;10.170;2023-08-17T06:04:12;17.90;99.90
46091;DHT22;31826;53.572;10.170;2023-08-17T06:06:37;17.80;99.90
46091;DHT22;31826;53.572;10.170;2023-08-17T06:09:03;17.80;99.90
46091;DHT22;31826;53.572;10.170;2023-08-17T06:11:29;17.70;99.90
46091;DHT22;31826;53.572;10.170;2023-08-17T06:13:55;17.80;99.90
46091;DHT22;31826;53.572;10.170;2023-08-17T06:16:20;17.70;99.90
46091;DHT22;31826;53.572;10.170;2023-08-17T06:18:46;17.60;99.90
46091;DHT22;31826;53.572;10.170;2023-08-17T06:21:12;17.60;99.90
46091;DHT22;31826;53.572;10.170;2023-08-17T06:23:37;17.60;99.90
46091;DHT22;31826;53.572;10.170;2023-08-17T06:26:03;17.50;99.90
46091;DHT22;31826;53.572;10.170;2023-08-17T06:28:29;17.50;99.90
46091;DHT22;31826;53.572;10.170;2023-08-17T06:30:55;17.40;99.90
46091;DHT22;31826;53.572;10.170;2023-08-17T06:33:21;17.30;99.90
46091;DHT22;31826;53.572;10.170;2023-08-17T06:35:48;17.20;99.90
46091;DHT22;31826;53.572;10.170;2023-08-17T06:38:14;17.20;99.90
46091;DHT22;31826;53.572;10.170;2023-08-17T06:40:40;17.10;99.90
46091;DHT22;31826;53.572;10.170;2023-08-17T06:43:06;17.10;99.90
46091;DHT22;31826;53.572;10.170;2023-08-17T06:45:32;17.10;99.90
46091;DHT22;31826;53.572;10.170;2023-08-17T06:47:58;17.00;99.90
46091;DHT22;31826;53.572;10.170;2023-08-17T06:50:24;17.00;99.90
46091;DHT22;31826;53.572;10.170;2023-08-17T06:52:52;17.00;99.90
46091;DHT22;31826;53.572;10.170;2023-08-17T06:55:18;16.90;99.90
46091;DHT22;31826;53.572;10.170;2023-08-17T06:57:43;17.00;99.90
46091;DHT22;31826;53.572;10.170;2023-08-17T07:00:10;17.00;99.90
46091;DHT22;31826;53.572;10.170;2023-08-17T07:02:37;17.00;99.90
46091;DHT22;31826;53.572;10.170;2023-08-17T07:05:03;17.00;99.90
46091;DHT22;31826;53.572;10.170;2023-08-17T07:07:30;16.90;99.90
46091;DHT22;31826;53.572;10.170;2023-08-17T07:09:59;17.00;99.90
46091;DHT22;31826;53.572;10.170;2023-08-17T07:12:24;16.90;99.90
46091;DHT22;31826;53.572;10.170;2023-08-17T07:14:50;16.90;99.90
46091;DHT22;31826;53.572;10.170;2023-08-17T07:17:16;16.80;99.90
46091;DHT22;31826;53.572;10.170;2023-08-17T07:19:42;16.90;99.90
46091;DHT22;31826;53.572;10.170;2023-08-17T07:22:08;16.80;99.90
46091;DHT22;31826;53.572;10.170;2023-08-17T07:24:33;16.80;99.90
46091;DHT22;31826;53.572;10.170;2023-08-17T07:26:59;16.80;99.90
46091;DHT22;31826;53.572;10.170;2023-08-17T07:29:25;16.80;99.90
46091;DHT22;31826;53.572;10.170;2023-08-17T07:31:50;16.80;99.90
46091;DHT22;31826;53.572;10.170;2023-08-17T07:34:16;16.70;99.90
46091;DHT22;31826;53.572;10.170;2023-08-17T07:36:42;16.70;99.90
46091;DHT22;31826;53.572;10.170;2023-08-17T07:39:08;16.70;99.90
46091;DHT22;31826;53.572;10.170;2023-08-17T07:41:33;16.70;99.90
46091;DHT22;31826;53.572;10.170;2023-08-17T07:43:59;16.70;99.90
46091;DHT22;31826;53.572;10.170;2023-08-17T07:46:25;16.70;99.90
46091;DHT22;31826;53.572;10.170;2023-08-17T07:48:50;16.80;99.90
46091;DHT22;31826;53.572;10.170;2023-08-17T07:51:16;16.80;99.90
46091;DHT22;31826;53.572;10.170;2023-08-17T07:53:42;16.90;99.90
46091;DHT22;31826;53.572;10.170;2023-08-17T07:56:07;17.00;99.90
46091;DHT22;31826;53.572;10.170;2023-08-17T07:58:33;17.00;99.90
46091;DHT22;31826;53.572;10.170;2023-08-17T08:00:59;17.00;99.90
46091;DHT22;31826;53.572;10.170;2023-08-17T08:03:24;17.10;99.90
46091;DHT22;31826;53.572;10.170;2023-08-17T08:05:50;17.00;99.90
46091;DHT22;31826;53.572;10.170;2023-08-17T08:08:16;17.00;99.90
46091;DHT22;31826;53.572;10.170;2023-08-17T08:10:43;16.90;99.90
46091;DHT22;31826;53.572;10.170;2023-08-17T08:13:09;16.80;99.90
46091;DHT22;31826;53.572;10.170;2023-08-17T08:15:35;16.80;99.90
46091;DHT22;31826;53.572;10.170;2023-08-17T08:18:01;16.80;99.90
46091;DHT22;31826;53.572;10.170;2023-08-17T08:20:26;16.70;99.90
46091;DHT22;31826;53.572;10.170;2023-08-17T08:22:52;16.60;99.90
46091;DHT22;31826;53.572;10.170;2023-08-17T08:25:18;16.60;99.90
46091;DHT22;31826;53.572;10.170;2023-08-17T08:27:43;16.60;99.90
46091;DHT22;31826;53.572;10.170;2023-08-17T08:30:09;16.60;99.90
46091;DHT22;31826;53.572;10.170;2023-08-17T08:32:35;16.50;99.90
46091;DHT22;31826;53.572;10.170;2023-08-17T08:35:02;16.60;99.90
46091;DHT22;31826;53.572;10.170;2023-08-17T08:37:28;16.60;99.90
46091;DHT22;31826;53.572;10.170;2023-08-17T08:39:55;16.60;99.90
46091;DHT22;31826;53.572;10.170;2023-08-17T08:42:21;16.70;99.90
46091;DHT22;31826;53.572;10.170;2023-08-17T08:44:48;16.70;99.90
46091;DHT22;31826;53.572;10.170;2023-08-17T08:47:17;16.70;99.90
46091;DHT22;31826;53.572;10.170;2023-08-17T08:50:02;16.80;99.90
46091;DHT22;31826;53.572;10.170;2023-08-17T08:52:35;16.90;99.90
46091;DHT22;31826;53.572;10.170;2023-08-17T08:55:18;17.00;99.90
46091;DHT22;31826;53.572;10.170;2023-08-17T08:57:47;17.00;99.90
46091;DHT22;31826;53.572;10.170;2023-08-17T09:00:15;17.20;99.90
46091;DHT22;31826;53.572;10.170;2023-08-17T09:02:42;17.30;99.90
46091;DHT22;31826;53.572;10.170;2023-08-17T09:05:10;17.30;99.90
46091;DHT22;31826;53.572;10.170;2023-08-17T09:07:37;17.30;99.90
46091;DHT22;31826;53.572;10.170;2023-08-17T09:10:04;17.30;99.90
46091;DHT22;31826;53.572;10.170;2023-08-17T09:12:30;17.30;99.90
46091;DHT22;31826;53.572;10.170;2023-08-17T09:14:56;17.30;99.90
46091;DHT22;31826;53.572;10.170;2023-08-17T09:17:26;17.20;99.90
46091;DHT22;31826;53.572;10.170;2023-08-17T09:19:52;17.30;99.90
46091;DHT22;31826;53.572;10.170;2023-08-17T09:22:25;17.30;99.90
46091;DHT22;31826;53.572;10.170;2023-08-17T09:24:51;17.30;99.90
46091;DHT22;31826;53.572;10.170;2023-08-17T09:27:17;17.30;99.90
46091;DHT22;31826;53.572;10.170;2023-08-17T09:29:43;17.30;99.90
46091;DHT22;31826;53.572;10.170;2023-08-17T09:32:13;17.30;99.90
46091;DHT22;31826;53.572;10.170;2023-08-17T09:34:42;17.20;99.90
46091;DHT22;31826;53.572;10.170;2023-08-17T09:37:08;17.10;99.90
46091;DHT22;31826;53.572;10.170;2023-08-17T09:39:33;17.10;99.90
46091;DHT22;31826;53.572;10.170;2023-08-17T09:42:00;17.00;99.90
46091;DHT22;31826;53.572;10.170;2023-08-17T09:44:26;17.00;99.90
46091;DHT22;31826;53.572;10.170;2023-08-17T09:46:55;16.90;99.90
46091;DHT22;31826;53.572;10.170;2023-08-17T09:49:23;16.90;99.90
46091;DHT22;31826;53.572;10.170;2023-08-17T09:51:50;16.80;99.90
46091;DHT22;31826;53.572;10.170;2023-08-17T09:54:24;16.80;99.90
46091;DHT22;31826;53.572;10.170;2023-08-17T09:56:53;16.80;99.90
46091;DHT22;31826;53.572;10.170;2023-08-17T09:59:19;16.70;99.90
46091;DHT22;31826;53.572;10.170;2023-08-17T10:01:49;16.70;99.90
46091;DHT22;31826;53.572;10.170;2023-08-17T10:04:22;16.70;99.90
46091;DHT22;31826;53.572;10.170;2023-08-17T10:06:51;16.70;99.90
46091;DHT22;31826;53.572;10.170;2023-08-17T10:09:24;16.70;99.90
46091;DHT22;31826;53.572;10.170;2023-08-17T10:11:57;16.70;99.90
46091;DHT22;31826;53.572;10.170;2023-08-17T10:14:29;16.70;99.90
46091;DHT22;31826;53.572;10.170;2023-08-17T10:17:07;16.70;99.90
46091;DHT22;31826;53.572;10.170;2023-08-17T10:19:58;16.70;99.90
46091;DHT22;31826;53.572;10.170;2023-08-17T10:22:41;16.60;99.90
46091;DHT22;31826;53.572;10.170;2023-08-17T10:25:11;16.70;99.90
46091;DHT22;31826;53.572;10.170;2023-08-17T10:27:40;16.70;99.90
46091;DHT22;31826;53.572;10.170;2023-08-17T10:30:10;16.70;99.90
46091;DHT22;31826;53.572;10.170;2023-08-17T10:32:37;16.70;99.90
46091;DHT22;31826;53.572;10.170;2023-08-17T10:35:04;16.70;99.90
46091;DHT22;31826;53.572;10.170;2023-08-17T10:37:31;16.70;99.90
46091;DHT22;31826;53.572;10.170;2023-08-17T10:39:57;16.60;99.90
46091;DHT22;31826;53.572;10.170;2023-08-17T10:42:36;16.60;99.90
46091;DHT22;31826;53.572;10.170;2023-08-17T10:47:47;16.70;99.90
46091;DHT22;31826;53.572;10.170;2023-08-17T10:50:23;16.60;99.90
46091;DHT22;31826;53.572;10.170;2023-08-17T10:52:50;16.60;99.90
46091;DHT22;31826;53.572;10.170;2023-08-17T10:55:16;16.40;99.90
46091;DHT22;31826;53.572;10.170;2023-08-17T10:57:44;16.40;99.90
46091;DHT22;31826;53.572;10.170;2023-08-17T11:00:15;16.40;99.90
46091;DHT22;31826;53.572;10.170;2023-08-17T11:02:57;16.30;99.90
46091;DHT22;31826;53.572;10.170;2023-08-17T11:05:49;16.30;99.90
46091;DHT22;31826;53.572;10.170;2023-08-17T11:08:40;16.20;99.90
46091;DHT22;31826;53.572;10.170;2023-08-17T11:11:15;16.20;99.90
46091;DHT22;31826;53.572;10.170;2023-08-17T11:13:43;16.10;99.90
46091;DHT22;31826;53.572;10.170;2023-08-17T11:16:11;16.20;99.90
46091;DHT22;31826;53.572;10.170;2023-08-17T11:18:37;16.00;99.90
46091;DHT22;31826;53.572;10.170;2023-08-17T11:21:04;16.00;99.90
46091;DHT22;31826;53.572;10.170;2023-08-17T11:23:31;15.90;99.90
46091;DHT22;31826;53.572;10.170;2023-08-17T11:25:57;15.90;99.90
46091;DHT22;31826;53.572;10.170;2023-08-17T11:28:23;16.00;99.90
46091;DHT22;31826;53.572;10.170;2023-08-17T11:31:00;15.90;99.90
46091;DHT22;31826;53.572;10.170;2023-08-17T11:33:26;16.10;99.90
46091;DHT22;31826;53.572;10.170;2023-08-17T11:35:54;16.30;99.90
46091;DHT22;31826;53.572;10.170;2023-08-17T11:38:20;16.50;99.90
46091;DHT22;31826;53.572;10.170;2023-08-17T11:40:46;16.70;99.90
46091;DHT22;31826;53.572;10.170;2023-08-17T11:43:11;16.80;99.90
46091;DHT22;31826;53.572;10.170;2023-08-17T11:45:37;17.00;99.90
46091;DHT22;31826;53.572;10.170;2023-08-17T11:48:03;17.10;99.90
46091;DHT22;31826;53.572;10.170;2023-08-17T11:50:29;17.20;99.90
46091;DHT22;31826;53.572;10.170;2023-08-17T11:52:55;17.20;99.90
46091;DHT22;31826;53.572;10.170;2023-08-17T11:55:24;17.40;99.90
46091;DHT22;31826;53.572;10.170;2023-08-17T11:57:49;17.40;99.90
46091;DHT22;31826;53.572;10.170;2023-08-17T12:00:20;17.10;99.90
46091;DHT22;31826;53.572;10.170;2023-08-17T12:02:50;17.10;99.90
46091;DHT22;31826;53.572;10.170;2023-08-17T12:05:22;17.00;99.90
46091;DHT22;31826;53.572;10.170;2023-08-17T12:07:55;17.00;99.90
46091;DHT22;31826;53.572;10.170;2023-08-17T12:10:21;17.00;99.90
46091;DHT22;31826;53.572;10.170;2023-08-17T12:12:50;17.00;99.90
46091;DHT22;31826;53.572;10.170;2023-08-17T12:15:16;17.10;99.90
46091;DHT22;31826;53.572;10.170;2023-08-17T12:17:49;17.20;99.90
46091;DHT22;31826;53.572;10.170;2023-08-17T12:20:20;17.30;99.90
46091;DHT22;31826;53.572;10.170;2023-08-17T12:22:47;17.40;99.90
46091;DHT22;31826;53.572;10.170;2023-08-17T12:25:13;17.40;99.90
46091;DHT22;31826;53.572;10.170;2023-08-17T12:27:39;17.50;99.90
46091;DHT22;31826;53.572;10.170;2023-08-17T12:30:12;17.50;99.90
46091;DHT22;31826;53.572;10.170;2023-08-17T12:32:38;17.60;99.90
46091;DHT22;31826;53.572;10.170;2023-08-17T12:35:04;17.60;99.90
46091;DHT22;31826;53.572;10.170;2023-08-17T12:37:30;17.60;99.90
46091;DHT22;31826;53.572;10.170;2023-08-17T12:39:56;17.60;99.90
46091;DHT22;31826;53.572;10.170;2023-08-17T12:42:21;17.60;99.90
46091;DHT22;31826;53.572;10.170;2023-08-17T12:44:47;17.70;99.90
46091;DHT22;31826;53.572;10.170;2023-08-17T12:47:14;17.60;99.90
46091;DHT22;31826;53.572;10.170;2023-08-17T12:49:39;17.60;99.90
46091;DHT22;31826;53.572;10.170;2023-08-17T12:52:05;17.70;99.90
46091;DHT22;31826;53.572;10.170;2023-08-17T12:54:31;17.70;99.90
46091;DHT22;31826;53.572;10.170;2023-08-17T12:56:56;17.70;99.90
46091;DHT22;31826;53.572;10.170;2023-08-17T12:59:22;17.70;99.90
46091;DHT22;31826;53.572;10.170;2023-08-17T13:01:48;17.70;99.90
46091;DHT22;31826;53.572;10.170;2023-08-17T13:04:13;17.70;99.90
46091;DHT22;31826;53.572;10.170;2023-08-17T13:06:39;17.50;99.90
46091;DHT22;31826;53.572;10.170;2023-08-17T13:09:05;17.50;99.90
46091;DHT22;31826;53.572;10.170;2023-08-17T13:11:31;17.50;99.90
46091;DHT22;31826;53.572;10.170;2023-08-17T13:13:57;17.40;99.90
46091;DHT22;31826;53.572;10.170;2023-08-17T13:16:23;17.50;99.90
46091;DHT22;31826;53.572;10.170;2023-08-17T13:18:49;17.50;99.90
46091;DHT22;31826;53.572;10.170;2023-08-17T13:21:14;17.50;99.90
46091;DHT22;31826;53.572;10.170;2023-08-17T13:23:41;17.50;99.90
46091;DHT22;31826;53.572;10.170;2023-08-17T13:26:07;17.50;99.90
46091;DHT22;31826;53.572;10.170;2023-08-17T13:28:33;17.60;99.90
46091;DHT22;31826;53.572;10.170;2023-08-17T13:30:58;17.60;99.90
46091;DHT22;31826;53.572;10.170;2023-08-17T13:33:24;17.70;99.90
46091;DHT22;31826;53.572;10.170;2023-08-17T13:35:50;17.80;99.90
46091;DHT22;31826;53.572;10.170;2023-08-17T13:38:16;17.80;99.90
46091;DHT22;31826;53.572;10.170;2023-08-17T13:40:42;17.90;99.90
46091;DHT22;31826;53.572;10.170;2023-08-17T13:43:08;17.90;99.90
46091;DHT22;31826;53.572;10.170;2023-08-17T13:45:41;18.00;99.90
46091;DHT22;31826;53.572;10.170;2023-08-17T13:48:07;18.10;99.90
46091;DHT22;31826;53.572;10.170;2023-08-17T13:50:34;18.10;99.90
46091;DHT22;31826;53.572;10.170;2023-08-17T13:53:00;18.10;99.90
46091;DHT22;31826;53.572;10.170;2023-08-17T13:55:26;18.10;99.90
46091;DHT22;31826;53.572;10.170;2023-08-17T13:57:53;18.10;99.90
46091;DHT22;31826;53.572;10.170;2023-08-17T14:00:21;18.10;99.90
46091;DHT22;31826;53.572;10.170;2023-08-17T14:02:46;18.10;99.90
46091;DHT22;31826;53.572;10.170;2023-08-17T14:05:12;18.00;99.90
46091;DHT22;31826;53.572;10.170;2023-08-17T14:07:38;18.10;99.90
46091;DHT22;31826;53.572;10.170;2023-08-17T14:10:04;18.00;99.90
46091;DHT22;31826;53.572;10.170;2023-08-17T14:12:30;18.00;99.90
46091;DHT22;31826;53.572;10.170;2023-08-17T14:14:55;18.00;99.90
46091;DHT22;31826;53.572;10.170;2023-08-17T14:17:21;18.10;99.90
46091;DHT22;31826;53.572;10.170;2023-08-17T14:19:47;18.10;99.90
46091;DHT22;31826;53.572;10.170;2023-08-17T14:22:12;18.10;99.90
46091;DHT22;31826;53.572;10.170;2023-08-17T14:24:38;18.00;99.90
46091;DHT22;31826;53.572;10.170;2023-08-17T14:27:04;18.00;99.90
46091;DHT22;31826;53.572;10.170;2023-08-17T14:29:30;17.90;99.90
46091;DHT22;31826;53.572;10.170;2023-08-17T14:31:55;17.90;99.90
46091;DHT22;31826;53.572;10.170;2023-08-17T14:34:21;17.90;99.90
46091;DHT22;31826;53.572;10.170;2023-08-17T14:36:47;17.80;99.90
46091;DHT22;31826;53.572;10.170;2023-08-17T14:39:13;17.70;99.90
46091;DHT22;31826;53.572;10.170;2023-08-17T14:41:38;17.60;99.90
46091;DHT22;31826;53.572;10.170;2023-08-17T14:44:04;17.60;99.90
46091;DHT22;31826;53.572;10.170;2023-08-17T14:46:30;17.60;99.90
46091;DHT22;31826;53.572;10.170;2023-08-17T14:48:56;17.60;99.90
46091;DHT22;31826;53.572;10.170;2023-08-17T14:51:23;17.50;99.90
46091;DHT22;31826;53.572;10.170;2023-08-17T14:53:49;17.50;99.90
46091;DHT22;31826;53.572;10.170;2023-08-17T14:56:15;17.40;99.90
46091;DHT22;31826;53.572;10.170;2023-08-17T14:58:40;17.40;99.90
46091;DHT22;31826;53.572;10.170;2023-08-17T15:01:06;17.40;99.90
46091;DHT22;31826;53.572;10.170;2023-08-17T15:03:32;17.30;99.90
46091;DHT22;31826;53.572;10.170;2023-08-17T15:05:57;17.30;99.90
46091;DHT22;31826;53.572;10.170;2023-08-17T15:08:23;17.20;99.90
46091;DHT22;31826;53.572;10.170;2023-08-17T15:10:49;17.20;99.90
46091;DHT22;31826;53.572;10.170;2023-08-17T15:13:15;17.30;99.90
46091;DHT22;31826;53.572;10.170;2023-08-17T15:15:41;17.20;99.90
46091;DHT22;31826;53.572;10.170;2023-08-17T15:18:08;17.10;99.90
46091;DHT22;31826;53.572;10.170;2023-08-17T15:20:34;17.10;99.90